createdAt,value
2019-06-08T00:02:14.691Z,49.94
2019-06-08T00:04:41.631Z,49.88
2019-06-08T00:07:08.360Z,50.46
2019-06-08T00:09:35.044Z,51.23
2019-06-08T00:12:01.936Z,50.66
2019-06-08T00:14:28.726Z,50.03
2019-06-08T00:16:55.519Z,50.43
2019-06-08T00:19:23.560Z,49.96
2019-06-08T00:21:50.466Z,51.22
2019-06-08T00:24:17.794Z,50.16
2019-06-08T00:26:44.612Z,49.80
2019-06-08T00:29:11.405Z,50.63
2019-06-08T00:31:38.274Z,50.96
2019-06-08T00:34:05.053Z,50.91
2019-06-08T00:36:31.837Z,51.22
2019-06-08T00:38:58.658Z,51.33
2019-06-08T00:41:25.506Z,51.29
2019-06-08T00:43:52.542Z,49.87
2019-06-08T00:46:19.439Z,51.97
2019-06-08T00:48:46.189Z,51.51
2019-06-08T00:51:12.853Z,51.21
2019-06-08T00:53:39.591Z,51.62
2019-06-08T00:56:06.374Z,51.31
2019-06-08T00:58:33.163Z,50.64
2019-06-08T01:01:00.109Z,51.11
2019-06-08T01:03:26.895Z,51.79
2019-06-08T01:05:53.658Z,52.32
2019-06-08T01:08:22.090Z,52.56
2019-06-08T01:10:49.416Z,51.56
2019-06-08T01:13:16.330Z,52.00
2019-06-08T01:15:43.220Z,52.68
2019-06-08T01:18:10.017Z,52.64
2019-06-08T01:20:36.721Z,52.99
2019-06-08T01:23:03.503Z,52.75
2019-06-08T01:25:30.261Z,53.27
2019-06-08T01:27:57.118Z,51.90
2019-06-08T01:30:24.224Z,52.33
2019-06-08T01:32:51.058Z,50.52
2019-06-08T01:35:17.731Z,51.37
2019-06-08T01:37:44.381Z,53.38
2019-06-08T01:40:11.128Z,52.69
2019-06-08T01:42:37.827Z,51.36
2019-06-08T01:45:04.745Z,51.23
2019-06-08T01:47:32.404Z,52.34
2019-06-08T01:49:59.235Z,52.89
2019-06-08T01:52:27.131Z,53.53
2019-06-08T01:54:53.924Z,53.41
2019-06-08T01:57:20.601Z,53.26
2019-06-08T01:59:47.163Z,51.47
2019-06-08T02:02:13.877Z,51.97
2019-06-08T02:04:40.682Z,52.22
2019-06-08T02:07:07.352Z,52.91
2019-06-08T02:09:34.845Z,52.86
2019-06-08T02:12:01.660Z,52.69
2019-06-08T02:14:29.147Z,53.06
2019-06-08T02:16:56.962Z,54.37
2019-06-08T02:19:23.784Z,54.10
2019-06-08T02:21:50.685Z,54.07
2019-06-08T02:24:18.468Z,54.72
2019-06-08T02:26:47.803Z,54.43
2019-06-08T02:29:14.461Z,52.96
2019-06-08T02:31:42.002Z,54.58
2019-06-08T02:34:08.845Z,54.96
2019-06-08T02:36:37.618Z,54.31
2019-06-08T02:39:06.159Z,53.83
2019-06-08T02:41:33.155Z,53.02
2019-06-08T02:44:00.072Z,52.89
2019-06-08T02:46:26.755Z,52.54
2019-06-08T02:49:03.605Z,52.91
2019-06-08T02:51:22.833Z,52.49
2019-06-08T02:53:49.730Z,54.09
2019-06-08T02:56:17.702Z,55.71
2019-06-08T02:58:45.288Z,52.86
2019-06-08T03:01:13.184Z,53.02
2019-06-08T03:03:40.312Z,52.15
2019-06-08T03:06:07.066Z,52.66
2019-06-08T03:08:38.960Z,52.35
2019-06-08T03:11:05.887Z,52.29
2019-06-08T03:13:33.929Z,53.11
2019-06-08T03:16:02.306Z,52.33
2019-06-08T03:18:29.006Z,53.67
2019-06-08T03:20:55.839Z,53.47
2019-06-08T03:23:22.603Z,52.45
2019-06-08T03:25:53.075Z,53.11
2019-06-08T03:28:17.640Z,53.18
2019-06-08T03:30:52.450Z,53.38
2019-06-08T03:33:13.044Z,53.95
2019-06-08T03:35:52.687Z,54.20
2019-06-08T03:38:09.358Z,54.36
2019-06-08T03:40:38.017Z,54.49
2019-06-08T03:43:04.781Z,53.22
2019-06-08T03:45:31.535Z,54.11
2019-06-08T03:47:58.333Z,53.87
2019-06-08T03:50:24.997Z,53.87
2019-06-08T03:52:51.743Z,53.96
2019-06-08T03:55:18.297Z,54.21
2019-06-08T03:57:46.331Z,54.92
2019-06-08T04:00:13.933Z,55.42
2019-06-08T04:02:42.323Z,54.89
2019-06-08T04:05:09.413Z,54.66
2019-06-08T04:07:37.598Z,54.63
2019-06-08T04:10:04.543Z,54.66
2019-06-08T04:12:31.095Z,55.15
2019-06-08T04:14:57.744Z,55.19
2019-06-08T04:17:24.318Z,55.24
2019-06-08T04:20:09.670Z,55.59
2019-06-08T04:22:19.463Z,55.51
2019-06-08T04:24:46.646Z,55.78
2019-06-08T04:27:13.266Z,55.97
2019-06-08T04:29:41.668Z,55.91
2019-06-08T04:32:08.612Z,55.82
2019-06-08T04:34:35.186Z,56.13
2019-06-08T04:37:02.262Z,56.27
2019-06-08T04:39:28.994Z,56.39
2019-06-08T04:41:55.655Z,56.57
2019-06-08T04:44:22.211Z,56.79
2019-06-08T04:46:49.546Z,57.06
2019-06-08T04:49:16.824Z,56.79
2019-06-08T04:51:45.245Z,57.06
2019-06-08T04:54:14.587Z,57.07
2019-06-08T04:56:40.965Z,57.42
2019-06-08T04:59:07.860Z,56.97
2019-06-08T05:01:34.437Z,56.89
2019-06-08T05:04:01.099Z,57.74
2019-06-08T05:06:27.651Z,57.63
2019-06-08T05:08:54.328Z,57.18
2019-06-08T05:11:20.987Z,57.58
2019-06-08T05:13:48.115Z,57.47
2019-06-08T05:16:16.053Z,57.70
2019-06-08T05:18:43.161Z,58.11
2019-06-08T05:21:09.982Z,57.64
2019-06-08T05:23:36.859Z,57.48
2019-06-08T05:26:03.532Z,57.78
2019-06-08T05:28:30.303Z,58.04
2019-06-08T05:30:56.898Z,57.54
2019-06-08T05:33:23.444Z,57.50
2019-06-08T05:35:50.141Z,58.08
2019-06-08T05:38:16.789Z,58.46
2019-06-08T05:40:43.623Z,58.44
2019-06-08T05:43:10.413Z,58.13
2019-06-08T05:45:37.334Z,57.82
2019-06-08T05:48:03.988Z,57.47
2019-06-08T05:50:30.669Z,57.12
2019-06-08T05:52:57.444Z,57.22
2019-06-08T05:55:24.002Z,57.27
2019-06-08T05:57:50.683Z,57.19
2019-06-08T06:00:17.458Z,57.05
2019-06-08T06:02:44.794Z,57.48
2019-06-08T06:05:12.648Z,57.45
2019-06-08T06:07:40.548Z,57.37
2019-06-08T06:10:08.746Z,57.02
2019-06-08T06:12:35.676Z,57.67
2019-06-08T06:15:02.683Z,57.29
2019-06-08T06:17:29.384Z,57.35
2019-06-08T06:19:56.551Z,57.45
2019-06-08T06:22:23.215Z,57.25
2019-06-08T06:24:49.968Z,57.65
2019-06-08T06:27:17.857Z,57.31
2019-06-08T06:29:45.475Z,57.45
2019-06-08T06:32:12.298Z,57.61
2019-06-08T06:34:41.992Z,57.28
2019-06-08T06:37:09.006Z,57.63
2019-06-08T06:39:35.707Z,57.37
2019-06-08T06:42:02.547Z,57.67
2019-06-08T06:44:29.116Z,57.29
2019-06-08T06:47:10.287Z,57.68
2019-06-08T06:49:37.300Z,57.62
2019-06-08T06:52:09.949Z,56.68
2019-06-08T06:54:36.641Z,56.49
2019-06-08T06:57:03.584Z,56.74
2019-06-08T06:59:30.328Z,56.83
2019-06-08T07:01:57.755Z,56.78
2019-06-08T07:04:24.645Z,57.19
2019-06-08T07:06:52.251Z,57.52
2019-06-08T07:09:19.044Z,57.58
2019-06-08T07:11:46.851Z,57.96
2019-06-08T07:14:13.719Z,56.63
2019-06-08T07:16:40.376Z,56.30
2019-06-08T07:19:06.957Z,56.88
2019-06-08T07:21:41.589Z,56.29
2019-06-08T07:24:02.451Z,56.75
2019-06-08T07:26:29.356Z,56.74
2019-06-08T07:28:56.033Z,55.82
2019-06-08T07:31:22.759Z,55.90
2019-06-08T07:33:53.641Z,55.71
2019-06-08T07:36:20.585Z,56.21
2019-06-08T07:38:48.379Z,55.94
2019-06-08T07:41:15.741Z,56.20
2019-06-08T07:43:44.171Z,56.51
2019-06-08T07:46:10.856Z,56.14
2019-06-08T07:48:37.723Z,56.08
2019-06-08T07:51:04.553Z,55.71
2019-06-08T07:53:31.230Z,55.50
2019-06-08T07:55:58.159Z,55.96
2019-06-08T07:58:25.045Z,55.33
2019-06-08T08:00:52.994Z,55.16
2019-06-08T08:03:20.576Z,55.40
2019-06-08T08:05:48.170Z,55.07
2019-06-08T08:08:14.808Z,55.01
2019-06-08T08:10:41.809Z,55.00
2019-06-08T08:13:08.500Z,55.46
2019-06-08T08:15:37.305Z,55.41
2019-06-08T08:18:04.181Z,55.15
2019-06-08T08:20:30.958Z,54.93
2019-06-08T08:23:04.156Z,54.98
2019-06-08T08:25:28.167Z,54.06
2019-06-08T08:28:01.205Z,54.66
2019-06-08T08:30:28.421Z,54.65
2019-06-08T08:33:03.621Z,54.48
2019-06-08T08:35:30.290Z,53.79
2019-06-08T08:38:04.035Z,53.37
2019-06-08T08:40:31.854Z,53.43
2019-06-08T08:43:09.337Z,53.49
2019-06-08T08:45:37.353Z,52.24
2019-06-08T08:48:25.450Z,52.46
2019-06-08T08:50:44.414Z,52.09
2019-06-08T08:53:11.221Z,51.00
2019-06-08T08:55:38.153Z,50.16
2019-06-08T08:58:05.103Z,50.90
2019-06-08T09:00:31.895Z,51.40
2019-06-08T09:03:22.005Z,51.36
2019-06-08T09:05:34.877Z,49.87
2019-06-08T09:08:03.974Z,50.79
2019-06-08T09:10:31.768Z,50.47
2019-06-08T09:13:01.779Z,51.05
2019-06-08T09:15:31.205Z,50.88
2019-06-08T09:17:58.742Z,49.70
2019-06-08T09:20:24.669Z,52.09
2019-06-08T09:22:58.856Z,49.89
2019-06-08T09:25:20.332Z,50.26
2019-06-08T09:27:48.238Z,49.58
2019-06-08T09:30:18.373Z,49.93
2019-06-08T09:32:47.592Z,49.52
2019-06-08T09:35:13.909Z,49.06
2019-06-08T09:37:40.684Z,48.87
2019-06-08T09:40:08.552Z,47.89
2019-06-08T09:42:35.443Z,48.07
2019-06-08T09:45:05.157Z,48.35
2019-06-08T09:47:31.549Z,48.80
2019-06-08T09:50:01.516Z,47.05
2019-06-08T09:52:28.168Z,47.28
2019-06-08T09:54:56.957Z,47.23
2019-06-08T09:57:24.222Z,46.90
2019-06-08T09:59:51.012Z,46.65
2019-06-08T10:02:18.504Z,46.30
2019-06-08T10:04:45.518Z,45.93
2019-06-08T10:07:13.518Z,45.95
2019-06-08T10:09:43.262Z,45.88
2019-06-08T10:12:09.985Z,46.75
2019-06-08T10:14:38.736Z,47.21
2019-06-08T10:17:06.654Z,46.67
2019-06-08T10:19:34.185Z,46.70
2019-06-08T10:22:01.139Z,47.05
2019-06-08T10:24:28.009Z,46.79
2019-06-08T10:26:55.263Z,47.14
2019-06-08T10:29:21.851Z,47.38
2019-06-08T10:31:48.745Z,45.77
2019-06-08T10:34:16.621Z,46.25
2019-06-08T10:36:43.579Z,45.57
2019-06-08T10:39:11.857Z,44.11
2019-06-08T10:41:39.082Z,44.75
2019-06-08T10:44:11.186Z,45.69
2019-06-08T10:46:34.586Z,46.92
2019-06-08T10:49:01.932Z,44.16
2019-06-08T10:51:28.950Z,44.16
2019-06-08T10:53:55.791Z,44.65
2019-06-08T10:56:22.664Z,46.66
2019-06-08T10:58:49.894Z,44.11
2019-06-08T11:01:18.692Z,43.36
2019-06-08T11:03:45.081Z,44.70
2019-06-08T11:06:13.288Z,44.21
2019-06-08T11:08:40.452Z,42.60
2019-06-08T11:11:11.321Z,43.66
2019-06-08T11:13:36.311Z,43.69
2019-06-08T11:16:04.448Z,43.12
2019-06-08T11:18:32.163Z,42.02
2019-06-08T11:21:00.790Z,43.18
2019-06-08T11:23:28.805Z,42.49
2019-06-08T11:26:03.264Z,42.85
2019-06-08T11:28:24.577Z,42.03
2019-06-08T11:30:51.440Z,42.22
2019-06-08T11:33:20.254Z,42.45
2019-06-08T11:35:47.914Z,41.85
2019-06-08T11:38:17.471Z,39.68
2019-06-08T11:40:43.550Z,40.51
2019-06-08T11:43:10.674Z,39.77
2019-06-08T11:45:37.985Z,39.47
2019-06-08T11:48:06.384Z,40.60
2019-06-08T11:50:35.665Z,40.75
2019-06-08T11:53:03.737Z,40.82
2019-06-08T11:55:30.996Z,39.14
2019-06-08T11:57:58.617Z,39.93
2019-06-08T12:01:01.899Z,41.51
2019-06-08T12:03:30.459Z,40.40
2019-06-08T12:05:58.288Z,39.77
2019-06-08T12:08:28.173Z,39.02
2019-06-08T12:10:53.972Z,37.88
2019-06-08T12:13:20.588Z,38.73
2019-06-08T12:15:49.527Z,40.30
2019-06-08T12:18:18.114Z,41.17
2019-06-08T12:20:45.202Z,41.92
2019-06-08T12:23:12.110Z,41.76
2019-06-08T12:25:38.921Z,38.92
2019-06-08T12:28:06.639Z,37.27
2019-06-08T12:30:34.263Z,39.35
2019-06-08T12:33:00.975Z,39.64
2019-06-08T12:35:28.387Z,38.91
2019-06-08T12:37:58.110Z,39.29
2019-06-08T12:40:28.112Z,39.18
2019-06-08T12:42:54.920Z,37.94
2019-06-08T12:45:21.660Z,37.15
2019-06-08T12:47:48.351Z,35.49
2019-06-08T12:50:16.530Z,36.63
2019-06-08T12:52:43.391Z,35.83
2019-06-08T12:55:14.281Z,34.92
2019-06-08T12:57:40.113Z,34.97
2019-06-08T13:00:09.366Z,35.36
2019-06-08T13:02:39.252Z,37.35
2019-06-08T13:05:11.587Z,34.23
2019-06-08T13:07:34.864Z,34.11
2019-06-08T13:10:01.714Z,34.90
2019-06-08T13:12:28.403Z,34.27
2019-06-08T13:14:55.098Z,35.16
2019-06-08T13:17:21.956Z,33.05
2019-06-08T13:19:48.755Z,33.27
2019-06-08T13:22:15.573Z,31.49
2019-06-08T13:24:43.950Z,32.34
2019-06-08T13:27:13.686Z,32.32
2019-06-08T13:29:39.247Z,33.54
2019-06-08T13:32:07.853Z,32.76
2019-06-08T13:34:34.902Z,32.45
2019-06-08T13:37:01.606Z,32.12
2019-06-08T13:39:28.370Z,31.25
2019-06-08T13:41:55.114Z,31.34
2019-06-08T13:44:22.034Z,30.78
2019-06-08T13:46:49.044Z,31.20
2019-06-08T13:49:18.576Z,31.12
2019-06-08T13:51:44.504Z,30.50
2019-06-08T13:54:11.339Z,29.90
2019-06-08T13:56:39.750Z,30.54
2019-06-08T13:59:08.017Z,30.35
2019-06-08T14:01:37.295Z,29.92
2019-06-08T14:04:03.597Z,30.91
2019-06-08T14:06:30.318Z,29.93
2019-06-08T14:08:58.006Z,29.68
2019-06-08T14:11:25.266Z,31.54
2019-06-08T14:13:53.046Z,29.19
2019-06-08T14:16:21.845Z,30.50
2019-06-08T14:18:48.663Z,31.51
2019-06-08T14:21:17.205Z,30.37
2019-06-08T14:23:44.200Z,30.80
2019-06-08T14:26:10.896Z,29.26
2019-06-08T14:28:38.062Z,30.17
2019-06-08T14:31:05.191Z,30.06
2019-06-08T14:33:33.678Z,30.23
2019-06-08T14:36:00.712Z,30.91
2019-06-08T14:38:35.452Z,30.07
2019-06-08T14:40:56.365Z,29.22
2019-06-08T14:43:23.075Z,29.46
2019-06-08T14:45:49.885Z,29.28
2019-06-08T14:48:18.970Z,31.00
2019-06-08T14:50:45.007Z,29.84
2019-06-08T14:53:11.928Z,29.58
2019-06-08T14:55:38.894Z,29.63
2019-06-08T14:58:08.414Z,30.74
2019-06-08T15:00:37.846Z,30.24
2019-06-08T15:03:03.923Z,29.74
2019-06-08T15:05:32.286Z,32.77
2019-06-08T15:08:01.119Z,29.75
2019-06-08T15:10:28.479Z,28.99
2019-06-08T15:12:57.839Z,29.73
2019-06-08T15:15:25.884Z,28.62
2019-06-08T15:17:53.324Z,29.56
2019-06-08T15:20:22.269Z,30.12
2019-06-08T15:22:49.057Z,29.23
2019-06-08T15:25:18.398Z,29.86
2019-06-08T15:27:44.508Z,29.74
2019-06-08T15:30:11.814Z,30.58
2019-06-08T15:32:38.778Z,30.96
2019-06-08T15:35:08.078Z,30.18
2019-06-08T15:37:34.553Z,29.90
2019-06-08T15:40:01.354Z,29.71
2019-06-08T15:42:29.119Z,30.07
2019-06-08T15:44:59.432Z,29.77
2019-06-08T15:47:26.171Z,30.30
2019-06-08T15:49:53.267Z,31.15
2019-06-08T15:52:19.979Z,31.41
2019-06-08T15:54:48.421Z,30.61
2019-06-08T15:57:15.157Z,32.07
2019-06-08T15:59:42.108Z,33.42
2019-06-08T16:02:08.853Z,35.47
2019-06-08T16:04:35.611Z,36.36
2019-06-08T16:07:02.285Z,34.78
2019-06-08T16:09:29.981Z,32.79
2019-06-08T16:11:59.458Z,33.49
2019-06-08T16:14:26.648Z,33.97
2019-06-08T16:16:53.457Z,33.70
2019-06-08T16:19:20.257Z,33.32
2019-06-08T16:21:46.846Z,32.43
2019-06-08T16:24:13.542Z,31.60
2019-06-08T16:26:52.278Z,31.38
2019-06-08T16:29:08.879Z,30.84
2019-06-08T16:31:35.621Z,30.81
2019-06-08T16:34:02.305Z,31.88
2019-06-08T16:36:29.375Z,32.58
2019-06-08T16:38:56.291Z,32.09
2019-06-08T16:41:22.952Z,31.39
2019-06-08T16:43:49.705Z,31.95
2019-06-08T16:46:16.384Z,31.95
2019-06-08T16:48:43.157Z,33.06
2019-06-08T16:51:09.725Z,33.48
2019-06-08T16:53:36.520Z,32.29
2019-06-08T16:56:03.338Z,35.20
2019-06-08T16:58:30.078Z,33.30
2019-06-08T17:00:56.962Z,32.90
2019-06-08T17:03:23.754Z,34.18
2019-06-08T17:05:50.398Z,31.98
2019-06-08T17:08:17.142Z,33.86
2019-06-08T17:10:43.772Z,33.37
2019-06-08T17:13:12.067Z,36.56
2019-06-08T17:15:40.314Z,36.52
2019-06-08T17:18:07.377Z,35.43
2019-06-08T17:20:34.139Z,34.96
2019-06-08T17:23:01.133Z,31.91
2019-06-08T17:25:27.796Z,31.54
2019-06-08T17:27:56.403Z,32.03
2019-06-08T17:30:23.211Z,32.83
2019-06-08T17:32:49.969Z,32.98
2019-06-08T17:35:16.645Z,32.98
2019-06-08T17:37:43.305Z,32.36
2019-06-08T17:40:10.278Z,34.14
2019-06-08T17:42:37.626Z,34.51
2019-06-08T17:45:04.684Z,36.48
2019-06-08T17:47:32.415Z,36.08
2019-06-08T17:50:00.574Z,36.16
2019-06-08T17:52:28.133Z,35.09
2019-06-08T17:54:54.977Z,34.59
2019-06-08T17:57:21.780Z,35.18
2019-06-08T17:59:48.568Z,35.94
2019-06-08T18:02:25.406Z,36.62
2019-06-08T18:04:44.467Z,37.83
2019-06-08T18:07:11.537Z,40.49
2019-06-08T18:09:39.267Z,36.25
2019-06-08T18:12:07.510Z,42.43
2019-06-08T18:14:35.373Z,37.02
2019-06-08T18:17:03.529Z,43.20
2019-06-08T18:19:30.200Z,43.61
2019-06-08T18:22:02.913Z,43.97
2019-06-08T18:24:27.896Z,39.35
2019-06-08T18:26:58.520Z,39.89
2019-06-08T18:29:27.590Z,36.66
2019-06-08T18:31:54.046Z,40.95
2019-06-08T18:34:20.642Z,39.55
2019-06-08T18:36:48.039Z,37.05
2019-06-08T18:39:14.851Z,43.67
2019-06-08T18:41:42.583Z,41.26
2019-06-08T18:44:11.420Z,44.10
2019-06-08T18:46:40.393Z,46.25
2019-06-08T18:49:08.039Z,41.31
2019-06-08T18:51:35.190Z,46.25
2019-06-08T18:54:11.764Z,48.11
2019-06-08T18:56:30.564Z,48.60
2019-06-08T18:58:58.389Z,49.40
2019-06-08T19:01:27.358Z,49.48
2019-06-08T19:03:53.896Z,47.50
2019-06-08T19:06:22.518Z,46.76
2019-06-08T19:08:50.931Z,46.21
2019-06-08T19:11:19.305Z,45.69
2019-06-08T19:13:49.946Z,46.34
2019-06-08T19:16:18.180Z,46.68
2019-06-08T19:18:48.037Z,46.99
2019-06-08T19:21:13.587Z,48.05
2019-06-08T19:23:42.302Z,43.34
2019-06-08T19:26:08.648Z,47.24
2019-06-08T19:28:38.780Z,48.35
2019-06-08T19:31:04.115Z,46.85
2019-06-08T19:33:31.899Z,46.38
2019-06-08T19:35:59.166Z,48.43
2019-06-08T19:38:27.961Z,43.88
2019-06-08T19:40:57.326Z,47.80
2019-06-08T19:43:27.765Z,44.98
2019-06-08T19:46:02.600Z,44.51
2019-06-08T19:48:31.193Z,47.98
2019-06-08T19:50:58.278Z,50.09
2019-06-08T19:53:31.884Z,50.46
2019-06-08T19:55:59.627Z,50.34
2019-06-08T19:58:28.315Z,52.51
2019-06-08T20:00:58.772Z,54.48
2019-06-08T20:03:29.689Z,55.30
2019-06-08T20:05:59.690Z,53.84
2019-06-08T20:08:29.110Z,54.12
2019-06-08T20:10:57.552Z,52.86
2019-06-08T20:13:30.962Z,55.08
2019-06-08T20:16:01.507Z,54.93
2019-06-08T20:18:32.273Z,55.40
2019-06-08T20:21:10.066Z,56.15
2019-06-08T20:23:38.076Z,54.82
2019-06-08T20:26:11.599Z,53.79
2019-06-08T20:28:49.678Z,56.39
2019-06-08T20:31:15.281Z,56.24
2019-06-08T20:33:43.383Z,55.98
2019-06-08T20:36:10.261Z,56.17
2019-06-08T20:38:39.732Z,56.17
2019-06-08T20:41:09.662Z,56.81
2019-06-08T20:43:38.129Z,56.64
2019-06-08T20:46:05.468Z,57.66
2019-06-08T20:48:33.399Z,58.25
2019-06-08T20:51:00.237Z,58.91
2019-06-08T20:53:28.273Z,58.76
2019-06-08T20:56:03.197Z,59.01
2019-06-08T20:58:30.970Z,59.24
2019-06-08T21:00:57.803Z,58.18
2019-06-08T21:03:31.753Z,57.99
2019-06-08T21:05:58.906Z,59.23
2019-06-08T21:08:28.045Z,58.05
2019-06-08T21:11:01.563Z,57.45
2019-06-08T21:13:28.284Z,56.40
2019-06-08T21:16:03.808Z,55.45
2019-06-08T21:18:37.935Z,56.88
2019-06-08T21:21:10.848Z,58.13
2019-06-08T21:23:47.115Z,58.37
2019-06-08T21:26:14.081Z,58.50
2019-06-08T21:28:40.920Z,59.16
2019-06-08T21:31:11.848Z,58.47
2019-06-08T21:33:39.701Z,58.89
2019-06-08T21:36:08.909Z,59.24
2019-06-08T21:38:37.691Z,59.42
2019-06-08T21:41:08.257Z,60.23
2019-06-08T21:43:37.273Z,60.31
2019-06-08T21:46:07.596Z,60.21
2019-06-08T21:48:34.621Z,59.84
2019-06-08T21:51:01.822Z,60.70
2019-06-08T21:53:28.649Z,61.11
2019-06-08T21:55:56.281Z,60.63
2019-06-08T21:58:23.077Z,61.35
2019-06-08T22:00:51.094Z,61.06
2019-06-08T22:03:17.933Z,61.50
2019-06-08T22:05:44.633Z,61.07
2019-06-08T22:08:11.307Z,60.61
2019-06-08T22:10:38.125Z,61.46
2019-06-08T22:13:05.207Z,61.06
2019-06-08T22:15:31.916Z,61.43
2019-06-08T22:18:00.191Z,61.96
2019-06-08T22:20:27.457Z,60.14
2019-06-08T22:22:55.115Z,61.41
2019-06-08T22:25:22.041Z,62.05
2019-06-08T22:27:51.090Z,62.09
2019-06-08T22:30:35.215Z,61.60
2019-06-08T22:32:47.568Z,61.38
2019-06-08T22:35:14.500Z,62.57
2019-06-08T22:37:41.172Z,62.34
2019-06-08T22:40:08.433Z,62.52
2019-06-08T22:42:37.516Z,62.97
2019-06-08T22:45:04.553Z,62.76
2019-06-08T22:47:31.237Z,63.25
2019-06-08T22:50:00.267Z,62.89
2019-06-08T22:52:27.704Z,63.05
2019-06-08T22:54:58.406Z,62.96
2019-06-08T22:57:23.189Z,63.65
2019-06-08T22:59:49.919Z,63.17
2019-06-08T23:02:18.267Z,63.42
2019-06-08T23:04:47.411Z,64.82
2019-06-08T23:07:25.708Z,63.62
2019-06-08T23:09:42.204Z,64.35
2019-06-08T23:12:28.730Z,63.97
2019-06-08T23:14:58.814Z,64.11
2019-06-08T23:17:24.045Z,63.85
2019-06-08T23:19:53.170Z,64.47
2019-06-08T23:22:20.059Z,64.69
2019-06-08T23:24:47.733Z,63.53
2019-06-08T23:27:14.380Z,64.33
2019-06-08T23:29:41.064Z,64.35
2019-06-08T23:32:11.370Z,64.34
2019-06-08T23:34:38.331Z,64.16
2019-06-08T23:37:08.410Z,63.36
2019-06-08T23:39:37.491Z,64.32
2019-06-08T23:42:04.213Z,64.20
2019-06-08T23:44:30.854Z,64.36
2019-06-08T23:46:59.461Z,64.96
2019-06-08T23:49:27.799Z,64.84
2019-06-08T23:51:59.669Z,64.36
2019-06-08T23:54:27.862Z,65.30
2019-06-08T23:56:53.621Z,64.82
2019-06-08T23:59:20.303Z,65.32
